Карточка аэропорта UMKK

Внимание!
Информация на этой странице в стадии наполнения.
Если вы не увидели какой-то информации, или заметили неточность - пожалуйста сообщите нам!
Спасибо!
Команда RU-STAFF
Название аэропортаХраброво
Название аэропорта (англ.)Khrabrovo
Превышение43 ft. (13.1 m.)
Координаты54°53.4', 20°35.55'
Высота перехода4000ft
Эшелон переходаFL50 (QNH>=1013hPa); FL60 (QNH<1013hPa); FL50 (QNH<977hPa);
Коды ответчика6620-6637
Зона ОрВДКалининград РПИ (UMKK)
Данные METARUMKK 252100Z 22004MPS 5000 -SHRA BKN016CB 06/06 Q1008 R24/290095 TEMPO VRB10G17MPS 1200 TSRAGS BR BKN003 BKN016CB RMK QFE755/1007
Проноз погоды (TAF)UMKK 251951Z 2521/2621 14003G10MPS 4000 -RA BR FEW006 BKN016 TEMPO 2521/2524 VRB10G17MPS 1000 TSRAGS BR BKN003 BKN010CB BECMG 2600/2602 2000 BR BKN003 TEMPO 2602/2609 0300 FG VV001 BECMG 2609/2611 4000 BR BKN006 BECMG 2612/2613 10003G08MPS TEMPO 2615/2621 0300 FG BKN002
NOTAMshow/hide NOTAM
AWOS   TABLE

Информация о ВПП

ВПП Длина ВПП (м.) Покрытие Курс ВПП Частота ILS
063350Асфальтобетон60110.3
243350Асфальтобетон240109.5

Диспетчерские позиции

Позывной Наименование органа УВД Частота
UMKK_APPКалининград-Подход126.0
UMKK_TWRКалининград-Вышка127.2



Спутниковое изображение